createdAt,value
2022-11-05T00:01:41.124Z,20.17
2022-11-05T00:04:30.975Z,14.25
2022-11-05T00:07:13.598Z,13.48
2022-11-05T00:09:42.028Z,16.75
2022-11-05T00:12:28.385Z,18.42
2022-11-05T00:15:14.519Z,14.55
2022-11-05T00:17:42.860Z,20.15
2022-11-05T00:20:13.352Z,15.63
2022-11-05T00:22:59.330Z,16.90
2022-11-05T00:25:27.687Z,17.05
2022-11-05T00:27:56.060Z,17.95
2022-11-05T00:30:24.434Z,16.15
2022-11-05T00:32:54.576Z,21.23
2022-11-05T00:35:21.150Z,20.02
2022-11-05T00:37:51.293Z,18.20
2022-11-05T00:40:18.231Z,17.92
2022-11-05T00:43:06.873Z,15.18
2022-11-05T00:45:33.087Z,16.30
2022-11-05T00:48:19.409Z,20.75
2022-11-05T00:50:47.741Z,16.27
2022-11-05T00:53:16.189Z,16.52
2022-11-05T00:55:44.574Z,15.90
2022-11-05T00:58:12.940Z,20.72
2022-11-05T01:00:41.325Z,16.93
2022-11-05T01:03:10.206Z,16.55
2022-11-05T01:05:39.536Z,16.70
2022-11-05T01:08:07.982Z,14.73
2022-11-05T01:10:36.338Z,17.95
2022-11-05T01:13:08.780Z,18.42
2022-11-05T01:15:33.134Z,19.00
2022-11-05T01:18:01.509Z,18.98
2022-11-05T01:20:29.893Z,15.23
2022-11-05T01:22:58.963Z,18.17
2022-11-05T01:25:27.397Z,15.60
2022-11-05T01:27:55.773Z,20.68
2022-11-05T01:30:24.179Z,20.85
2022-11-05T01:32:52.542Z,17.00
2022-11-05T01:35:23.254Z,18.70
2022-11-05T01:37:49.290Z,14.60
2022-11-05T01:40:19.322Z,15.63
2022-11-05T01:42:46.141Z,17.57
2022-11-05T01:45:15.493Z,19.77
2022-11-05T01:47:44.831Z,24.80
2022-11-05T01:50:16.148Z,15.70
2022-11-05T01:52:44.579Z,16.70
2022-11-05T01:57:49.108Z,17.32
2022-11-05T02:00:17.718Z,20.90
2022-11-05T02:02:46.184Z,16.30
2022-11-05T02:05:14.554Z,13.30
2022-11-05T02:07:45.422Z,15.65
2022-11-05T02:10:11.466Z,14.30
2022-11-05T02:12:39.843Z,14.83
2022-11-05T02:15:10.628Z,14.80
2022-11-05T02:17:39.403Z,17.62
2022-11-05T02:20:16.241Z,16.27
2022-11-05T02:23:06.518Z,14.87
2022-11-05T02:25:43.065Z,15.95
2022-11-05T02:28:20.490Z,18.00
2022-11-05T02:30:51.515Z,18.50
2022-11-05T02:33:23.645Z,16.17
2022-11-05T02:35:58.348Z,15.13
2022-11-05T02:38:28.689Z,15.10
2022-11-05T02:40:57.117Z,14.65
2022-11-05T02:43:26.153Z,16.20
2022-11-05T02:45:55.309Z,14.18
2022-11-05T02:48:23.650Z,13.05
2022-11-05T02:50:52.297Z,12.68
2022-11-05T02:53:20.856Z,15.50
2022-11-05T02:58:24.901Z,13.72
2022-11-05T03:00:54.935Z,14.35
2022-11-05T03:03:24.105Z,10.98
2022-11-05T03:05:55.049Z,12.95
2022-11-05T03:08:24.763Z,11.15
2022-11-05T03:10:53.168Z,12.15
2022-11-05T03:13:21.615Z,11.93
2022-11-05T03:15:51.535Z,13.85
2022-11-05T03:18:21.286Z,16.70
2022-11-05T03:20:50.251Z,21.40
2022-11-05T03:23:19.882Z,20.20
2022-11-05T03:25:48.247Z,14.70
2022-11-05T03:28:16.629Z,12.88
2022-11-05T03:30:44.978Z,11.90
2022-11-05T03:33:13.589Z,12.68
2022-11-05T03:35:41.781Z,9.08
2022-11-05T03:38:10.384Z,14.43
2022-11-05T03:40:38.744Z,13.90
2022-11-05T03:43:07.162Z,10.55
2022-11-05T03:45:35.570Z,9.53
2022-11-05T03:48:03.916Z,11.45
2022-11-05T03:50:34.731Z,10.93
2022-11-05T03:53:01.017Z,11.93
2022-11-05T03:58:07.550Z,11.40
2022-11-05T04:00:33.696Z,11.57
2022-11-05T04:03:02.119Z,14.63
2022-11-05T04:05:30.488Z,12.93
2022-11-05T04:08:16.488Z,10.30
2022-11-05T04:11:02.797Z,12.30
2022-11-05T04:13:31.201Z,12.00
2022-11-05T04:16:17.722Z,9.90
2022-11-05T04:18:46.103Z,10.05
2022-11-05T04:21:32.300Z,10.75
2022-11-05T04:24:09.793Z,11.48
2022-11-05T04:26:38.452Z,8.28
2022-11-05T04:29:26.896Z,10.75
2022-11-05T04:31:52.932Z,9.65
2022-11-05T04:34:22.257Z,10.53
2022-11-05T04:36:50.533Z,9.88
2022-11-05T04:39:18.887Z,11.95
2022-11-05T04:41:47.493Z,11.03
2022-11-05T04:44:15.874Z,7.78
2022-11-05T04:46:44.270Z,11.35
2022-11-05T04:49:12.635Z,11.53
2022-11-05T04:51:41.011Z,10.18
2022-11-05T04:56:44.980Z,11.12
2022-11-05T04:59:13.361Z,8.10
2022-11-05T05:01:41.838Z,12.20
2022-11-05T05:04:10.139Z,11.10
2022-11-05T05:06:38.521Z,9.15
2022-11-05T05:09:07.042Z,12.18
2022-11-05T05:11:35.427Z,32.30
2022-11-05T05:14:03.838Z,16.05
2022-11-05T05:16:32.207Z,15.10
2022-11-05T05:19:00.577Z,10.65
2022-11-05T05:21:41.073Z,14.25
2022-11-05T05:24:09.646Z,11.65
2022-11-05T05:26:38.021Z,8.73
2022-11-05T05:29:06.411Z,12.93
2022-11-05T05:31:34.810Z,12.23
2022-11-05T05:34:05.971Z,11.63
2022-11-05T05:36:31.639Z,11.90
2022-11-05T05:38:59.989Z,15.40
2022-11-05T05:41:28.357Z,10.82
2022-11-05T05:43:56.717Z,10.90
2022-11-05T05:46:25.150Z,13.38
2022-11-05T05:48:53.529Z,13.88
2022-11-05T05:51:21.878Z,16.57
2022-11-05T05:56:25.801Z,14.98
2022-11-05T05:58:54.189Z,11.22
2022-11-05T06:01:22.617Z,11.70
2022-11-05T06:03:50.917Z,14.60
2022-11-05T06:06:20.004Z,14.38
2022-11-05T06:08:48.347Z,12.10
2022-11-05T06:11:16.778Z,21.25
2022-11-05T06:13:45.126Z,16.82
2022-11-05T06:16:13.499Z,15.83
2022-11-05T06:18:41.906Z,15.20
2022-11-05T06:21:10.290Z,15.40
2022-11-05T06:23:38.705Z,14.63
2022-11-05T06:26:09.187Z,19.42
2022-11-05T06:28:35.701Z,14.65
2022-11-05T06:31:04.228Z,16.40
2022-11-05T06:33:32.579Z,16.45
2022-11-05T06:36:00.977Z,21.05
2022-11-05T06:38:29.684Z,16.32
2022-11-05T06:40:59.509Z,16.62
2022-11-05T06:43:27.887Z,17.95
2022-11-05T06:48:31.872Z,17.82
2022-11-05T06:51:00.211Z,14.25
2022-11-05T06:53:28.618Z,20.27
2022-11-05T06:58:32.590Z,21.30
2022-11-05T07:01:02.371Z,17.77
2022-11-05T07:03:30.693Z,15.72
2022-11-05T07:06:01.994Z,17.67
2022-11-05T07:08:28.340Z,17.87
2022-11-05T07:10:56.721Z,18.55
2022-11-05T07:13:25.128Z,17.87
2022-11-05T07:15:53.484Z,23.73
2022-11-05T07:18:21.905Z,18.90
2022-11-05T07:20:50.286Z,16.20
2022-11-05T07:23:18.682Z,19.27
2022-11-05T07:25:47.134Z,21.93
2022-11-05T07:28:15.477Z,16.32
2022-11-05T07:30:43.849Z,16.75
2022-11-05T07:33:14.250Z,18.52
2022-11-05T07:35:40.646Z,15.53
2022-11-05T07:38:09.289Z,17.87
2022-11-05T07:40:37.872Z,20.68
2022-11-05T07:43:06.236Z,23.20
2022-11-05T07:45:34.616Z,18.60
2022-11-05T07:48:02.998Z,28.70
2022-11-05T07:50:31.476Z,19.70
2022-11-05T07:53:02.934Z,20.85
2022-11-05T07:58:07.383Z,17.27
2022-11-05T08:00:35.801Z,15.68
2022-11-05T08:03:08.080Z,17.75
2022-11-05T08:05:32.543Z,16.97
2022-11-05T08:08:00.969Z,18.50
2022-11-05T08:10:29.344Z,16.02
2022-11-05T08:12:57.852Z,16.48
2022-11-05T08:15:26.208Z,13.90
2022-11-05T08:17:58.949Z,16.25
2022-11-05T08:20:27.348Z,14.43
2022-11-05T08:22:55.706Z,14.65
2022-11-05T08:25:24.086Z,13.90
2022-11-05T08:27:56.286Z,15.60
2022-11-05T08:30:24.755Z,13.68
2022-11-05T08:32:53.085Z,12.60
2022-11-05T08:35:21.456Z,13.78
2022-11-05T08:37:49.856Z,13.78
2022-11-05T08:40:18.291Z,17.98
2022-11-05T08:42:46.704Z,19.55
2022-11-05T08:45:17.610Z,22.32
2022-11-05T08:47:43.550Z,16.93
2022-11-05T08:50:11.973Z,13.80
2022-11-05T08:52:41.262Z,18.30
2022-11-05T08:57:46.440Z,17.73
2022-11-05T09:00:15.968Z,20.88
2022-11-05T09:02:44.279Z,16.00
2022-11-05T09:05:12.588Z,17.12
2022-11-05T09:07:40.964Z,17.75
2022-11-05T09:10:10.060Z,17.82
2022-11-05T09:12:38.461Z,15.80
2022-11-05T09:15:07.804Z,16.87
2022-11-05T09:17:36.201Z,16.93
2022-11-05T09:20:05.114Z,15.90
2022-11-05T09:22:33.495Z,12.93
2022-11-05T09:25:01.883Z,14.07
2022-11-05T09:27:30.235Z,15.55
2022-11-05T09:29:58.608Z,14.38
2022-11-05T09:32:26.985Z,13.20
2022-11-05T09:34:55.404Z,13.48
2022-11-05T09:37:23.770Z,12.98
2022-11-05T09:39:53.972Z,13.03
2022-11-05T09:42:20.529Z,12.18
2022-11-05T09:44:48.934Z,12.65
2022-11-05T09:47:17.306Z,13.98
2022-11-05T09:49:45.732Z,18.35
2022-11-05T09:52:14.114Z,13.50
2022-11-05T09:57:18.071Z,18.92
2022-11-05T09:59:46.420Z,15.43
2022-11-05T10:02:14.868Z,13.78
2022-11-05T10:04:43.203Z,13.83
2022-11-05T10:07:11.615Z,12.00
2022-11-05T10:09:40.407Z,13.58
2022-11-05T10:12:09.003Z,12.15
2022-11-05T10:14:37.783Z,9.05
2022-11-05T10:17:06.313Z,11.97
2022-11-05T10:19:38.297Z,11.63
2022-11-05T10:22:07.282Z,14.80
2022-11-05T10:24:34.467Z,10.53
2022-11-05T10:27:02.848Z,13.70
2022-11-05T10:29:32.838Z,12.10
2022-11-05T10:31:59.626Z,19.52
2022-11-05T10:34:28.010Z,15.18
2022-11-05T10:36:56.422Z,12.25
2022-11-05T10:39:24.821Z,13.13
2022-11-05T10:41:58.963Z,10.63
2022-11-05T10:44:28.299Z,12.75
2022-11-05T10:46:57.884Z,11.38
2022-11-05T10:49:27.795Z,16.82
2022-11-05T10:51:57.223Z,12.15
2022-11-05T10:57:01.519Z,11.35
2022-11-05T10:59:29.918Z,12.07
2022-11-05T11:01:59.160Z,14.95
2022-11-05T11:04:27.611Z,13.00
2022-11-05T11:06:55.989Z,12.80
2022-11-05T11:09:24.814Z,12.70
2022-11-05T11:12:02.917Z,11.53
2022-11-05T11:14:31.313Z,13.22
2022-11-05T11:17:04.634Z,12.90
2022-11-05T11:19:33.004Z,11.38
2022-11-05T11:22:15.637Z,9.60
2022-11-05T11:24:44.394Z,11.97
2022-11-05T11:27:12.823Z,10.78
2022-11-05T11:29:45.148Z,12.10
2022-11-05T11:32:11.016Z,10.35
2022-11-05T11:34:39.347Z,9.20
2022-11-05T11:37:07.756Z,12.20
2022-11-05T11:39:36.079Z,11.48
2022-11-05T11:42:04.610Z,9.33
2022-11-05T11:44:33.015Z,9.63
2022-11-05T11:47:01.572Z,9.08
2022-11-05T11:49:35.491Z,8.65
2022-11-05T11:52:02.231Z,8.93
2022-11-05T11:57:14.286Z,10.85
2022-11-05T12:00:07.213Z,10.55
2022-11-05T12:02:13.776Z,10.53
2022-11-05T12:04:44.217Z,11.55
2022-11-05T12:07:18.139Z,11.10
2022-11-05T12:09:50.411Z,10.40
2022-11-05T12:12:18.758Z,11.68
2022-11-05T12:14:47.165Z,10.50
2022-11-05T12:17:23.932Z,9.65
2022-11-05T12:20:04.229Z,9.90
2022-11-05T12:22:33.614Z,9.53
2022-11-05T12:25:06.101Z,9.05
2022-11-05T12:27:40.758Z,8.83
2022-11-05T12:30:11.494Z,9.90
2022-11-05T12:32:42.938Z,10.13
2022-11-05T12:35:13.617Z,9.95
2022-11-05T12:37:42.986Z,11.10
2022-11-05T12:40:24.308Z,6.87
2022-11-05T12:42:54.296Z,11.83
2022-11-05T12:45:24.296Z,8.60
2022-11-05T12:47:54.938Z,8.50
2022-11-05T12:50:24.127Z,8.45
2022-11-05T12:52:59.323Z,10.40
2022-11-05T12:58:04.832Z,9.43
2022-11-05T13:00:33.214Z,9.48
2022-11-05T13:03:03.514Z,9.28
2022-11-05T13:08:08.123Z,8.45
2022-11-05T13:10:36.655Z,7.80
2022-11-05T13:13:06.004Z,8.30
2022-11-05T13:18:12.044Z,7.78
2022-11-05T13:20:41.092Z,7.92
2022-11-05T13:23:12.366Z,8.25
2022-11-05T13:25:40.645Z,10.20
2022-11-05T13:28:09.014Z,8.85
2022-11-05T13:30:37.921Z,7.92
2022-11-05T13:33:06.540Z,9.03
2022-11-05T13:35:35.536Z,9.18
2022-11-05T13:38:21.847Z,7.00
2022-11-05T13:40:52.853Z,8.38
2022-11-05T13:43:24.612Z,7.70
2022-11-05T13:46:02.823Z,8.95
2022-11-05T13:48:36.385Z,7.50
2022-11-05T13:51:08.215Z,6.60
2022-11-05T13:53:55.401Z,7.97
2022-11-05T13:59:27.890Z,6.62
2022-11-05T14:01:55.098Z,6.42
2022-11-05T14:04:26.109Z,7.22
2022-11-05T14:06:54.470Z,7.97
2022-11-05T14:09:23.311Z,6.62
2022-11-05T14:11:51.652Z,6.28
2022-11-05T14:14:20.377Z,6.28
2022-11-05T14:19:27.682Z,8.13
2022-11-05T14:21:56.156Z,8.08
2022-11-05T14:24:40.854Z,9.98
2022-11-05T14:29:39.258Z,7.30
2022-11-05T14:32:12.702Z,7.50
2022-11-05T14:34:41.607Z,5.50
2022-11-05T14:37:37.687Z,8.43
2022-11-05T14:40:30.648Z,8.30
2022-11-05T14:42:59.074Z,8.45
2022-11-05T14:45:28.601Z,8.13
2022-11-05T14:47:56.982Z,12.18
2022-11-05T14:50:27.412Z,5.47
2022-11-05T14:52:55.759Z,6.42
2022-11-05T14:58:06.084Z,7.67
2022-11-05T15:00:44.207Z,8.25
2022-11-05T15:03:49.675Z,7.55
2022-11-05T15:06:21.662Z,8.18
2022-11-05T15:09:24.142Z,8.78
2022-11-05T15:12:05.890Z,7.28
2022-11-05T15:14:34.296Z,9.18
2022-11-05T15:17:03.524Z,6.45
2022-11-05T15:19:32.391Z,8.58
2022-11-05T15:22:00.727Z,10.58
2022-11-05T15:24:31.486Z,6.47
2022-11-05T15:26:57.741Z,6.92
2022-11-05T15:29:26.109Z,7.42
2022-11-05T15:31:54.573Z,9.43
2022-11-05T15:34:23.583Z,6.60
2022-11-05T15:36:52.957Z,8.13
2022-11-05T15:39:30.176Z,7.37
2022-11-05T15:41:57.645Z,6.92
2022-11-05T15:44:29.240Z,9.18
2022-11-05T15:47:07.181Z,5.92
2022-11-05T15:49:35.478Z,7.78
2022-11-05T15:52:06.220Z,8.13
2022-11-05T15:54:34.741Z,9.20
2022-11-05T15:57:02.972Z,9.68
2022-11-05T15:59:31.460Z,8.35
2022-11-05T16:02:00.288Z,8.90
2022-11-05T16:04:28.485Z,8.50
2022-11-05T16:06:57.276Z,7.12
2022-11-05T16:09:25.721Z,5.33
2022-11-05T16:12:11.645Z,8.00
2022-11-05T16:14:40.008Z,8.08
2022-11-05T16:17:14.713Z,9.35
2022-11-05T16:22:09.997Z,7.97
2022-11-05T16:24:38.352Z,8.35
2022-11-05T16:27:06.952Z,15.30
2022-11-05T16:29:35.453Z,7.85
2022-11-05T16:32:06.766Z,8.25
2022-11-05T16:37:08.964Z,7.85
2022-11-05T16:39:37.293Z,7.90
2022-11-05T16:44:43.279Z,7.45
2022-11-05T16:47:11.628Z,6.37
2022-11-05T16:49:40.041Z,7.55
2022-11-05T16:52:09.790Z,7.67
2022-11-05T16:54:38.141Z,6.72
2022-11-05T16:59:42.171Z,8.30
2022-11-05T17:02:13.322Z,7.75
2022-11-05T17:04:41.583Z,8.13
2022-11-05T17:07:09.923Z,6.22
2022-11-05T17:09:38.318Z,7.35
2022-11-05T17:12:08.527Z,7.80
2022-11-05T17:14:37.210Z,7.00
2022-11-05T17:17:05.944Z,10.23
2022-11-05T17:19:37.301Z,11.15
2022-11-05T17:24:41.239Z,8.90
2022-11-05T17:27:09.668Z,7.58
2022-11-05T17:29:38.036Z,8.40
2022-11-05T17:32:06.638Z,11.55
2022-11-05T17:34:35.022Z,8.75
2022-11-05T17:37:03.583Z,8.70
2022-11-05T17:39:32.184Z,8.38
2022-11-05T17:42:00.659Z,9.13
2022-11-05T17:44:29.034Z,9.33
2022-11-05T17:46:57.441Z,9.58
2022-11-05T17:49:28.993Z,7.95
2022-11-05T17:54:35.348Z,8.83
2022-11-05T17:57:01.496Z,6.58
2022-11-05T17:59:30.051Z,8.80
2022-11-05T18:01:58.551Z,7.55
2022-11-05T18:04:26.829Z,7.75
2022-11-05T18:06:55.274Z,9.13
2022-11-05T18:09:23.625Z,7.25
2022-11-05T18:11:52.073Z,7.58
2022-11-05T18:14:24.013Z,5.85
2022-11-05T18:16:49.393Z,7.83
2022-11-05T18:19:17.767Z,8.03
2022-11-05T18:21:46.203Z,11.30
2022-11-05T18:24:14.580Z,7.60
2022-11-05T18:26:43.002Z,8.70
2022-11-05T18:31:46.937Z,8.53
2022-11-05T18:34:16.409Z,9.98
2022-11-05T18:36:52.075Z,7.87
2022-11-05T18:39:16.364Z,9.08
2022-11-05T18:41:44.708Z,8.75
2022-11-05T18:44:13.154Z,10.05
2022-11-05T18:46:57.686Z,8.15
2022-11-05T18:49:10.345Z,7.37
2022-11-05T18:51:40.998Z,10.48
2022-11-05T18:56:45.115Z,7.95
2022-11-05T18:59:35.322Z,7.15
2022-11-05T19:01:41.985Z,8.65
2022-11-05T19:04:10.280Z,7.90
2022-11-05T19:06:38.651Z,8.43
2022-11-05T19:09:06.999Z,7.10
2022-11-05T19:11:35.357Z,7.55
2022-11-05T19:14:03.689Z,7.22
2022-11-05T19:16:32.055Z,9.10
2022-11-05T19:19:00.407Z,7.22
2022-11-05T19:21:28.825Z,7.08
2022-11-05T19:23:57.244Z,9.63
2022-11-05T19:26:28.577Z,8.40
2022-11-05T19:28:53.937Z,9.15
2022-11-05T19:31:22.307Z,13.10
2022-11-05T19:33:50.707Z,7.72
2022-11-05T19:36:19.172Z,7.80
2022-11-05T19:38:47.684Z,9.00
2022-11-05T19:41:16.054Z,7.58
2022-11-05T19:43:44.417Z,7.62
2022-11-05T19:46:12.760Z,9.00
2022-11-05T19:48:41.089Z,12.37
2022-11-05T19:51:09.473Z,8.35
2022-11-05T19:56:13.509Z,10.50
2022-11-05T19:58:41.860Z,7.55
2022-11-05T20:01:10.312Z,8.78
2022-11-05T20:03:38.649Z,6.87
2022-11-05T20:06:07.183Z,9.65
2022-11-05T20:08:47.882Z,10.03
2022-11-05T20:11:03.910Z,9.13
2022-11-05T20:13:32.310Z,6.53
2022-11-05T20:16:00.662Z,7.55
2022-11-05T20:18:29.062Z,9.58
2022-11-05T20:21:04.121Z,7.35
2022-11-05T20:23:32.866Z,8.75
2022-11-05T20:26:01.270Z,9.05
2022-11-05T20:28:29.704Z,8.83
2022-11-05T20:31:00.382Z,8.93
2022-11-05T20:33:27.687Z,8.83
2022-11-05T20:35:56.098Z,9.83
2022-11-05T20:38:24.542Z,7.65
2022-11-05T20:40:52.988Z,7.08
2022-11-05T20:43:24.756Z,8.90
2022-11-05T20:45:49.712Z,6.92
2022-11-05T20:48:18.081Z,9.35
2022-11-05T20:50:46.426Z,8.78
2022-11-05T20:53:14.784Z,9.23
2022-11-05T20:58:19.197Z,7.33
2022-11-05T21:00:50.928Z,9.33
2022-11-05T21:03:19.296Z,9.13
2022-11-05T21:05:47.905Z,8.15
2022-11-05T21:08:16.320Z,8.00
2022-11-05T21:10:50.004Z,6.87
2022-11-05T21:13:13.069Z,7.47
2022-11-05T21:15:41.443Z,7.83
2022-11-05T21:18:10.040Z,7.15
2022-11-05T21:20:40.338Z,7.37
2022-11-05T21:23:08.694Z,7.37
2022-11-05T21:25:38.605Z,8.28
2022-11-05T21:28:09.674Z,8.25
2022-11-05T21:30:35.470Z,8.18
2022-11-05T21:33:03.873Z,8.18
2022-11-05T21:35:32.226Z,8.20
2022-11-05T21:38:00.581Z,7.20
2022-11-05T21:40:29.020Z,6.28
2022-11-05T21:42:57.403Z,7.40
2022-11-05T21:45:25.745Z,8.18
2022-11-05T21:47:54.127Z,6.33
2022-11-05T21:50:22.708Z,9.23
2022-11-05T21:53:25.327Z,6.62
2022-11-05T21:58:47.115Z,7.33
2022-11-05T22:01:15.506Z,5.20
2022-11-05T22:03:43.791Z,7.28
2022-11-05T22:06:12.281Z,6.40
2022-11-05T22:08:40.656Z,5.97
2022-11-05T22:11:09.005Z,5.95
2022-11-05T22:13:37.379Z,9.33
2022-11-05T22:16:06.205Z,7.85
2022-11-05T22:18:34.551Z,4.92
2022-11-05T22:21:02.893Z,6.37
2022-11-05T22:23:31.276Z,8.10
2022-11-05T22:26:00.131Z,6.70
2022-11-05T22:28:28.500Z,6.03
2022-11-05T22:30:56.864Z,5.08
2022-11-05T22:33:25.236Z,8.95
2022-11-05T22:35:53.648Z,4.75
2022-11-05T22:38:22.038Z,7.95
2022-11-05T22:40:50.367Z,8.58
2022-11-05T22:43:18.699Z,7.72
2022-11-05T22:45:47.099Z,6.83
2022-11-05T22:48:15.826Z,5.47
2022-11-05T22:50:43.855Z,6.05
2022-11-05T22:53:12.201Z,7.28
2022-11-05T22:55:40.649Z,8.83
2022-11-05T22:58:09.027Z,5.78
2022-11-05T23:00:37.365Z,6.20
2022-11-05T23:03:05.936Z,9.55
2022-11-05T23:05:34.123Z,6.78
2022-11-05T23:08:20.329Z,6.00
2022-11-05T23:11:06.742Z,6.25
2022-11-05T23:13:35.106Z,5.72
2022-11-05T23:16:23.924Z,6.20
2022-11-05T23:19:09.275Z,7.85
2022-11-05T23:21:55.439Z,6.45
2022-11-05T23:24:23.803Z,5.72
2022-11-05T23:26:52.218Z,6.55
2022-11-05T23:29:23.099Z,12.18
2022-11-05T23:34:24.681Z,7.72
2022-11-05T23:37:10.663Z,6.03
2022-11-05T23:39:42.584Z,6.70
2022-11-05T23:42:25.295Z,5.75
2022-11-05T23:45:14.573Z,7.42
2022-11-05T23:47:58.345Z,7.78
2022-11-05T23:50:26.730Z,5.62
2022-11-05T23:52:55.113Z,5.42
2022-11-05T23:55:23.463Z,8.63
2022-11-05T23:57:51.911Z,7.17
